Terminal Aerodrome Forecast
Issued by NWS

Home | Current Version | Previous Version | Text Only | Print | Product List | Glossary On
Versions: 1 2 3 4 5 6 7 8 9 10 11 12 13
000
FTUS43 KAPX 192329
TAFPLN
TAF
KPLN 192329Z 2000/2024 10011G19KT P6SM OVC150
     FM200200 10010G18KT P6SM VCSH OVC100
     FM200700 09011G19KT 4SM -RA BR OVC014
     FM201000 09010KT 3SM -RA BR OVC007
     FM201600 23007KT 4SM -RA BR OVC009
     FM201900 27010G17KT P6SM -SHRA OVC015=

USA.gov is the U.S. government's official web portal to all federal, state and local government web resources and services.